Time;durP1;ratioP1;P1;durP2;ratioP2;P2;SDS_P1;SDS_P2;PMS_P1;PMS_P2;Temp;Humidity;BMP_temperature;BMP_pressure;BME280_temperature;BME280_humidity;BME280_pressure;Samples;Min_cycle;Max_cycle;Signal;HPM_P1;HPM_P2
2022/05/31 00:01:08;;;;;;;5.18;3.50;;;;;;;;;;5111314;28;20491;-56
2022/05/31 00:03:34;;;;;;;6.47;3.42;;;11.90;92.60;;;;;;5112635;28;20066;-52
2022/05/31 00:06:00;;;;;;;5.63;3.42;;;;;;;;;;5112722;28;20504;-57
2022/05/31 00:08:26;;;;;;;6.68;3.78;;;12.30;94.30;;;;;;5112517;28;20019;-57
2022/05/31 00:10:51;;;;;;;7.45;3.53;;;12.20;92.10;;;;;;5109917;28;20020;-58
2022/05/31 00:13:17;;;;;;;6.03;3.60;;;;;;;;;;5111837;28;20039;-58
2022/05/31 00:15:43;;;;;;;8.27;4.10;;;11.40;93.40;;;;;;5112270;28;20400;-60
2022/05/31 00:18:09;;;;;;;6.93;3.63;;;8.20;93.30;;;;;;5112369;28;20031;-56
2022/05/31 00:20:35;;;;;;;7.68;4.05;;;10.70;91.20;;;;;;5108229;28;20023;-54
2022/05/31 00:23:01;;;;;;;7.50;3.92;;;11.80;94.10;;;;;;5111955;28;20062;-56
2022/05/31 00:25:27;;;;;;;6.00;3.78;;;8.10;92.10;;;;;;5111961;28;20052;-59
2022/05/31 00:27:53;;;;;;;14.50;4.97;;;12.70;93.30;;;;;;5093572;28;20396;-57
2022/05/31 00:30:18;;;;;;;6.97;3.90;;;8.80;92.40;;;;;;5106774;28;20023;-59
2022/05/31 00:32:47;;;;;;;6.15;3.80;;;11.80;94.70;;;;;;5097723;28;20076;-53
2022/05/31 00:35:33;;;;;;;6.87;4.30;;;7.90;92.00;;;;;;5111871;28;20470;-56
2022/05/31 00:38:00;;;;;;;9.45;4.82;;;13.10;95.20;;;;;;5112034;28;20406;-57
2022/05/31 00:40:29;;;;;;;10.13;6.57;;;7.70;93.50;;;;;;5101544;28;20027;-53
2022/05/31 00:42:59;;;;;;;6.32;4.28;;;12.20;95.30;;;;;;5111628;28;20022;-59
2022/05/31 00:45:49;;;;;;;6.68;3.97;;;10.30;91.90;;;;;;5112000;28;20072;-52
2022/05/31 00:48:49;;;;;;;8.50;4.10;;;7.90;93.30;;;;;;5111653;28;20019;-54
2022/05/31 00:51:17;;;;;;;6.97;3.58;;;11.10;95.50;;;;;;5092022;28;20043;-58
2022/05/31 00:53:51;;;;;;;8.32;3.58;;;12.30;95.50;;;;;;5111498;28;20040;-56
2022/05/31 00:56:20;;;;;;;6.47;3.67;;;7.40;94.60;;;;;;5111424;28;20019;-59
2022/05/31 00:59:09;;;;;;;5.45;3.55;;;11.20;93.60;;;;;;5111790;28;20110;-56
2022/05/31 01:01:38;;;;;;;5.47;3.38;;;12.10;97.00;;;;;;5108219;28;20073;-54
2022/05/31 01:04:04;;;;;;;7.22;3.22;;;12.20;96.70;;;;;;5111622;28;20039;-61
2022/05/31 01:06:30;;;;;;;7.25;3.60;;;7.30;95.10;;;;;;5110664;28;20102;-57
2022/05/31 01:08:57;;;;;;;6.53;3.58;;;12.20;97.10;;;;;;5111517;28;20186;-58
2022/05/31 01:11:27;;;;;;;6.53;3.45;;;6.60;96.40;;;;;;5102293;28;20019;-58
2022/05/31 01:13:53;;;;;;;6.18;3.40;;;;;;;;;;5111201;28;20080;-59
2022/05/31 01:16:19;;;;;;;4.90;2.95;;;12.50;94.40;;;;;;5111475;28;20118;-52
2022/05/31 01:18:45;;;;;;;4.80;3.20;;;9.60;93.50;;;;;;5111587;28;20114;-56
2022/05/31 01:21:11;;;;;;;5.95;3.28;;;;;;;;;;5102804;28;20039;-42
2022/05/31 01:23:46;;;;;;;5.72;3.15;;;9.30;93.70;;;;;;5111140;28;20074;-43
2022/05/31 01:26:21;;;;;;;4.85;2.80;;;10.50;92.30;;;;;;5111290;28;20012;-42
2022/05/31 01:29:17;;;;;;;5.93;3.40;;;10.00;93.20;;;;;;5109844;28;20034;-44
2022/05/31 01:31:43;;;;;;;4.75;2.67;;;;;;;;;;5095400;28;20054;-52
2022/05/31 01:34:21;;;;;;;4.97;2.70;;;12.30;95.50;;;;;;5108663;28;20027;-55
2022/05/31 01:36:52;;;;;;;5.60;2.97;;;8.80;92.20;;;;;;5111273;28;20433;-54
2022/05/31 01:39:37;;;;;;;5.75;3.40;;;8.50;93.90;;;;;;5111789;28;20031;-57
2022/05/31 01:42:08;;;;;;;6.40;3.40;;;8.90;92.50;;;;;;5115510;28;20034;-50
2022/05/31 01:44:37;;;;;;;7.18;3.10;;;11.80;94.20;;;;;;5114149;28;20024;-58
2022/05/31 01:47:04;;;;;;;5.80;2.92;;;12.20;92.80;;;;;;5106713;28;20027;-51
2022/05/31 01:49:38;;;;;;;6.03;3.08;;;8.40;93.80;;;;;;5115136;28;20016;-57
2022/05/31 01:52:04;;;;;;;7.15;2.97;;;;;;;;;;5115292;28;20028;-58
2022/05/31 01:54:31;;;;;;;5.97;3.45;;;;;;;;;;5114629;28;20048;-60
2022/05/31 01:57:01;;;;;;;5.68;3.20;;;12.90;94.70;;;;;;5114928;28;20488;-58
2022/05/31 01:59:31;;;;;;;5.97;3.63;;;11.80;94.20;;;;;;5096519;28;20502;-58
2022/05/31 02:01:59;;;;;;;7.57;3.55;;;8.40;93.60;;;;;;5105369;28;20016;-56
2022/05/31 02:04:25;;;;;;;5.57;3.58;;;11.70;94.30;;;;;;5114906;28;20035;-39
2022/05/31 02:07:10;;;;;;;5.82;3.47;;;8.50;93.80;;;;;;5114946;28;20577;-39
2022/05/31 02:09:37;;;;;;;6.72;3.50;;;11.70;94.80;;;;;;5114886;28;20027;-43
2022/05/31 02:12:06;;;;;;;6.80;3.80;;;11.90;95.00;;;;;;5104066;28;20024;-39
2022/05/31 02:14:33;;;;;;;6.78;3.22;;;12.00;95.30;;;;;;5094230;28;20163;-42
2022/05/31 02:16:58;;;;;;;7.93;3.53;;;12.30;95.50;;;;;;5097611;28;20102;-39
2022/05/31 02:19:25;;;;;;;5.20;3.78;;;8.80;94.10;;;;;;5110763;28;20452;-52
2022/05/31 02:22:00;;;;;;;5.43;3.50;;;8.20;92.80;;;;;;5100187;28;20059;-39
2022/05/31 02:24:26;;;;;;;7.55;3.70;;;;;;;;;;5114487;28;20504;-48
2022/05/31 02:26:53;;;;;;;7.80;4.03;;;;;;;;;;5114511;28;20107;-39
2022/05/31 02:29:30;;;;;;;7.53;3.90;;;8.80;94.10;;;;;;5107751;28;20024;-54
2022/05/31 02:32:00;;;;;;;7.65;3.92;;;11.80;94.90;;;;;;5099048;28;20027;-46
2022/05/31 02:34:30;;;;;;;7.45;3.90;;;10.20;92.50;;;;;;5098284;28;20122;-51
2022/05/31 02:36:56;;;;;;;9.55;3.75;;;12.60;93.00;;;;;;5093972;28;20070;-49
2022/05/31 02:39:22;;;;;;;5.63;3.53;;;13.60;98.10;;;;;;5093934;28;20040;-59
2022/05/31 02:41:48;;;;;;;5.72;3.33;;;;;;;;;;5093762;28;20430;-43
2022/05/31 02:44:14;;;;;;;7.05;3.80;;;10.10;92.00;;;;;;5093648;28;20461;-57
2022/05/31 02:46:41;;;;;;;6.10;3.88;;;12.40;96.10;;;;;;5093699;28;20479;-55
2022/05/31 02:49:07;;;;;;;7.07;4.00;;;10.10;92.40;;;;;;5109171;28;20542;-57
2022/05/31 02:51:36;;;;;;;6.88;3.80;;;8.30;93.80;;;;;;5105709;28;20039;-60
2022/05/31 02:54:02;;;;;;;5.93;3.50;;;;;;;;;;5107204;28;20492;-55
2022/05/31 02:56:27;;;;;;;5.13;3.78;;;8.50;94.60;;;;;;5113870;28;20023;-59
2022/05/31 02:58:53;;;;;;;5.72;3.90;;;;;;;;;;5113996;28;20352;-60
2022/05/31 03:01:30;;;;;;;6.43;4.07;;;9.00;94.40;;;;;;5113768;28;20019;-59
2022/05/31 03:03:56;;;;;;;6.82;3.83;;;8.00;94.00;;;;;;5113854;28;20065;-58
2022/05/31 03:06:22;;;;;;;6.05;3.92;;;11.20;94.30;;;;;;5113866;28;20103;-58
2022/05/31 03:08:48;;;;;;;9.00;3.60;;;11.50;94.60;;;;;;5113883;28;20047;-58
2022/05/31 03:11:22;;;;;;;8.00;3.70;;;8.60;93.50;;;;;;5108102;28;20024;-49
2022/05/31 03:13:53;;;;;;;6.30;3.50;;;10.30;92.50;;;;;;5103167;28;20071;-58
2022/05/31 03:16:20;;;;;;;5.72;3.70;;;8.70;94.30;;;;;;5108426;28;20034;-58
2022/05/31 03:18:58;;;;;;;4.63;3.22;;;12.00;94.20;;;;;;5113419;28;20081;-58
2022/05/31 03:21:30;;;;;;;5.95;3.35;;;10.50;94.20;;;;;;5099134;28;20024;-56
2022/05/31 03:24:00;;;;;;;4.97;3.20;;;11.30;95.00;;;;;;5100113;28;20042;-57
2022/05/31 03:26:29;;;;;;;5.45;3.50;;;11.90;95.00;;;;;;5113394;28;20097;-59
2022/05/31 03:28:55;;;;;;;6.20;3.22;;;12.10;94.80;;;;;;5113360;28;20166;-57
2022/05/31 03:31:21;;;;;;;6.20;3.25;;;;;;;;;;5113339;28;20066;-56
2022/05/31 03:33:47;;;;;;;5.88;3.25;;;10.20;94.40;;;;;;5104469;28;20031;-56
2022/05/31 03:36:14;;;;;;;5.43;3.08;;;8.50;94.60;;;;;;5113190;28;20095;-58
2022/05/31 03:38:40;;;;;;;5.00;3.30;;;;;;;;;;5113006;28;20020;-55
2022/05/31 03:41:06;;;;;;;4.38;2.95;;;9.00;93.50;;;;;;5094927;28;20030;-59
2022/05/31 03:43:34;;;;;;;5.70;3.13;;;12.00;95.00;;;;;;5112841;28;20537;-55
2022/05/31 03:46:00;;;;;;;5.45;2.67;;;;;;;;;;5112946;28;20027;-56
2022/05/31 03:48:27;;;;;;;5.85;2.80;;;10.30;92.50;;;;;;5112977;28;20102;-46
2022/05/31 03:51:00;;;;;;;4.97;2.92;;;10.30;92.70;;;;;;5110748;28;20023;-59
2022/05/31 03:53:27;;;;;;;4.90;2.67;;;10.30;92.90;;;;;;5112519;28;20052;-44
2022/05/31 03:55:52;;;;;;;4.00;2.90;;;10.30;92.80;;;;;;5112628;28;20027;-58
2022/05/31 03:58:19;;;;;;;4.45;3.00;;;10.30;92.90;;;;;;5112753;28;20072;-61
2022/05/31 04:00:46;;;;;;;4.28;2.70;;;10.40;93.00;;;;;;5112748;28;20038;-58
2022/05/31 04:03:11;;;;;;;7.10;3.03;;;10.40;93.10;;;;;;5112220;28;20106;-47
2022/05/31 04:05:37;;;;;;;4.82;3.05;;;10.40;93.30;;;;;;5112710;28;20119;-39
2022/05/31 04:08:11;;;;;;;5.28;2.88;;;10.40;93.30;;;;;;5112696;28;20038;-58
2022/05/31 04:10:37;;;;;;;4.30;2.78;;;10.40;92.80;;;;;;5112472;28;20023;-57
2022/05/31 04:13:03;;;;;;;5.32;2.85;;;10.50;92.70;;;;;;5110251;28;20495;-51
2022/05/31 04:15:29;;;;;;;4.75;2.35;;;10.50;92.80;;;;;;5112316;28;20043;-59
2022/05/31 04:17:55;;;;;;;5.38;2.65;;;9.90;92.50;;;;;;5112121;28;20024;-57
2022/05/31 04:20:21;;;;;;;5.20;2.70;;;10.40;92.70;;;;;;5106880;28;20082;-60
2022/05/31 04:22:47;;;;;;;3.80;2.38;;;10.50;93.40;;;;;;5103527;28;20020;-49
2022/05/31 04:25:12;;;;;;;5.55;2.53;;;10.60;93.80;;;;;;5112014;28;20019;-57
2022/05/31 04:27:38;;;;;;;3.70;2.20;;;10.50;93.10;;;;;;5103926;28;20530;-47
2022/05/31 04:30:04;;;;;;;5.85;2.85;;;10.50;92.70;;;;;;5106930;28;20038;-54
2022/05/31 04:32:30;;;;;;;3.97;2.40;;;9.60;92.80;;;;;;5112204;28;20019;-59
2022/05/31 04:34:56;;;;;;;4.72;2.40;;;10.60;93.20;;;;;;5112089;28;20451;-56
2022/05/31 04:37:22;;;;;;;6.30;2.58;;;10.60;93.40;;;;;;5093627;28;20388;-50
2022/05/31 04:39:48;;;;;;;3.85;2.28;;;10.70;93.90;;;;;;5111998;28;20074;-62
2022/05/31 04:42:13;;;;;;;3.97;2.38;;;10.80;93.70;;;;;;5111944;28;20072;-51
2022/05/31 04:44:39;;;;;;;4.32;2.15;;;10.70;92.50;;;;;;5111739;28;20766;-56
2022/05/31 04:47:08;;;;;;;5.85;2.60;;;10.70;92.60;;;;;;5093312;28;20106;-53
2022/05/31 04:49:33;;;;;;;4.43;2.60;;;10.70;93.00;;;;;;5103867;28;20510;-55
2022/05/31 04:51:59;;;;;;;4.53;2.88;;;10.80;93.20;;;;;;5108489;28;20020;-56
2022/05/31 04:54:28;;;;;;;11.95;2.45;;;10.80;93.50;;;;;;5111566;28;20058;-53
2022/05/31 04:56:54;;;;;;;3.78;2.20;;;10.80;93.30;;;;;;5111543;28;20027;-58
2022/05/31 04:59:20;;;;;;;2.75;1.90;;;10.90;93.00;;;;;;5111875;28;20035;-57
2022/05/31 05:01:46;;;;;;;4.90;2.33;;;10.90;92.90;;;;;;5111515;28;20380;-58
2022/05/31 05:04:12;;;;;;;4.88;2.35;;;10.90;92.20;;;;;;5093370;28;20030;-54
2022/05/31 05:06:38;;;;;;;8.60;2.55;;;10.90;92.30;;;;;;5111682;28;20023;-59
2022/05/31 05:09:05;;;;;;;4.18;2.53;;;10.90;92.00;;;;;;5111393;28;20023;-49
2022/05/31 05:11:32;;;;;;;4.15;2.13;;;10.90;92.50;;;;;;5103221;28;20027;-54
2022/05/31 05:13:58;;;;;;;3.63;2.10;;;10.90;92.60;;;;;;5089419;28;20024;-58
2022/05/31 05:16:24;;;;;;;4.00;2.38;;;11.00;92.60;;;;;;5079429;28;20023;-54
2022/05/31 05:18:50;;;;;;;4.43;2.22;;;11.00;92.70;;;;;;5091384;28;20058;-44
2022/05/31 05:21:17;;;;;;;4.18;2.22;;;11.00;93.10;;;;;;5094013;28;20024;-52
2022/05/31 05:23:43;;;;;;;3.10;2.00;;;11.50;93.80;;;;;;5092840;28;20048;-47
2022/05/31 05:26:09;;;;;;;4.75;2.90;;;11.10;93.70;;;;;;5091543;28;20042;-40
2022/05/31 05:31:30;;;;;;;5.47;3.70;;;11.10;93.40;;;;;;5090926;28;20115;-52
2022/05/31 05:33:57;;;;;;;4.13;3.22;;;11.10;94.20;;;;;;5092891;28;20032;-57
2022/05/31 05:36:24;;;;;;;4.68;3.22;;;11.10;94.00;;;;;;5090695;28;20024;-57
2022/05/31 05:38:50;;;;;;;4.32;3.33;;;11.10;94.30;;;;;;5090767;28;20020;-48
2022/05/31 05:41:16;;;;;;;5.10;3.08;;;11.00;93.90;;;;;;5090792;28;20413;-58
2022/05/31 05:43:42;;;;;;;8.95;4.40;;;10.90;94.30;;;;;;5094733;28;20042;-60
2022/05/31 05:46:13;;;;;;;6.07;3.45;;;10.90;94.70;;;;;;5104263;28;20020;-58
2022/05/31 05:48:40;;;;;;;5.13;3.10;;;10.90;94.80;;;;;;5110933;28;20460;-58
2022/05/31 05:51:33;;;;;;;6.03;2.97;;;10.90;94.90;;;;;;5111411;28;20027;-55
2022/05/31 05:54:02;;;;;;;3.60;2.38;;;10.90;94.70;;;;;;5106688;28;20040;-53
2022/05/31 05:56:28;;;;;;;6.32;2.70;;;10.90;94.50;;;;;;5097833;28;20096;-56
2022/05/31 05:58:54;;;;;;;7.57;2.80;;;10.90;94.60;;;;;;5110664;28;20396;-50
2022/05/31 06:01:25;;;;;;;5.80;2.10;;;10.90;94.30;;;;;;5110848;28;20024;-59
2022/05/31 06:04:20;;;;;;;3.33;2.15;;;10.80;94.70;;;;;;5109363;28;20061;-54
2022/05/31 06:06:47;;;;;;;7.28;2.80;;;10.90;95.10;;;;;;5062528;28;20028;-53
2022/05/31 06:09:18;;;;;;;8.20;2.20;;;10.90;94.80;;;;;;5089379;28;20069;-44
2022/05/31 06:11:56;;;;;;;4.00;2.15;;;10.80;94.50;;;;;;5089054;28;20107;-57
2022/05/31 06:14:44;;;;;;;4.15;2.35;;;10.80;94.50;;;;;;5090688;28;20043;-62
2022/05/31 06:17:16;;;;;;;3.97;2.47;;;10.80;94.90;;;;;;5090339;28;20032;-56
2022/05/31 06:19:41;;;;;;;2.97;2.35;;;10.70;94.90;;;;;;5090067;28;20490;-58
2022/05/31 06:22:08;;;;;;;4.38;2.20;;;10.70;95.20;;;;;;5096347;28;20066;-62
2022/05/31 06:24:37;;;;;;;3.78;2.00;;;10.70;95.50;;;;;;5110783;28;20019;-56
2022/05/31 06:27:03;;;;;;;3.77;2.30;;;10.60;95.40;;;;;;5094035;28;20024;-59
2022/05/31 06:29:29;;;;;;;4.60;2.40;;;10.60;95.50;;;;;;5112701;28;20771;-51
2022/05/31 06:31:55;;;;;;;6.03;2.63;;;10.60;95.20;;;;;;5096233;28;20031;-57
2022/05/31 06:34:22;;;;;;;4.75;2.30;;;10.60;95.50;;;;;;5092262;28;20040;-57
2022/05/31 06:36:49;;;;;;;4.22;2.40;;;10.40;95.20;;;;;;5092153;28;20232;-59
2022/05/31 06:39:14;;;;;;;4.65;2.22;;;10.90;95.60;;;;;;5092336;28;20032;-50
2022/05/31 06:41:40;;;;;;;3.13;2.17;;;10.30;95.40;;;;;;5092933;28;20027;-60
2022/05/31 06:44:06;;;;;;;4.85;2.58;;;10.40;95.90;;;;;;5093231;28;20438;-58
2022/05/31 06:46:31;;;;;;;3.60;2.47;;;10.40;96.20;;;;;;5093180;28;20099;-59
2022/05/31 06:48:59;;;;;;;3.50;2.55;;;10.50;96.70;;;;;;5093091;28;20442;-53
2022/05/31 06:57:00;;;;;;;4.22;2.42;;;10.90;97.30;;;;;;5100862;28;20134;-51
2022/05/31 06:59:25;;;;;;;6.45;2.92;;;11.00;96.20;;;;;;5093138;28;20020;-58
2022/05/31 07:01:53;;;;;;;4.10;2.85;;;11.10;96.00;;;;;;5093123;28;20030;-47
2022/05/31 07:04:19;;;;;;;5.80;2.00;;;11.20;95.90;;;;;;5093045;28;20035;-48
2022/05/31 07:06:45;;;;;;;4.22;1.98;;;11.20;95.40;;;;;;5093370;28;20031;-58
2022/05/31 07:09:12;;;;;;;2.58;1.70;;;11.30;95.40;;;;;;5092848;28;20024;-57
2022/05/31 07:11:38;;;;;;;2.95;1.77;;;11.30;95.40;;;;;;5093140;28;20028;-44
2022/05/31 07:14:04;;;;;;;3.22;2.00;;;11.40;95.40;;;;;;5092973;28;20488;-53
2022/05/31 07:16:30;;;;;;;3.70;1.77;;;11.40;95.40;;;;;;5093064;28;20059;-52
2022/05/31 07:18:56;;;;;;;3.58;2.00;;;11.50;95.30;;;;;;5093292;28;20024;-53
2022/05/31 07:21:23;;;;;;;3.40;1.80;;;11.50;94.60;;;;;;5093054;28;20059;-51
2022/05/31 07:23:49;;;;;;;3.70;1.80;;;11.60;94.80;;;;;;5113027;28;20020;-49
2022/05/31 07:26:14;;;;;;;2.38;1.80;;;11.60;93.70;;;;;;5082207;28;20529;-42
2022/05/31 07:28:41;;;;;;;3.47;2.10;;;11.70;95.30;;;;;;5092524;28;20024;-45
2022/05/31 07:31:07;;;;;;;3.55;2.15;;;11.90;95.60;;;;;;5092259;28;20485;-57
2022/05/31 07:33:33;;;;;;;3.65;1.90;;;12.10;95.90;;;;;;5092717;28;20024;-53
2022/05/31 07:36:01;;;;;;;4.53;2.20;;;12.20;95.00;;;;;;5092907;28;20032;-55
2022/05/31 07:38:27;;;;;;;5.18;1.75;;;12.50;95.70;;;;;;5073284;28;20441;-53
2022/05/31 07:40:53;;;;;;;3.20;1.73;;;12.70;94.70;;;;;;5092744;28;20063;-59
2022/05/31 07:43:19;;;;;;;2.20;1.60;;;12.90;95.20;;;;;;5092516;28;20019;-48
2022/05/31 07:45:44;;;;;;;2.40;1.60;;;13.10;94.30;;;;;;5092228;28;20337;-54
2022/05/31 07:48:10;;;;;;;3.67;1.50;;;13.30;93.00;;;;;;5092607;28;20024;-56
2022/05/31 07:50:36;;;;;;;5.75;1.80;;;13.30;92.70;;;;;;5092470;28;20103;-55
2022/05/31 07:53:03;;;;;;;2.22;1.50;;;13.40;92.50;;;;;;5091982;28;20043;-49
2022/05/31 07:55:29;;;;;;;3.67;1.60;;;13.50;92.60;;;;;;5104299;28;20496;-51
2022/05/31 08:00:41;;;;;;;2.58;1.60;;;13.80;91.60;;;;;;5094941;28;20066;-55
2022/05/31 08:03:08;;;;;;;2.75;1.40;;;14.20;92.80;;;;;;5094573;28;20028;-44
2022/05/31 08:05:37;;;;;;;2.00;1.30;;;15.30;92.20;;;;;;5091417;28;20024;-56
2022/05/31 08:08:03;;;;;;;2.72;1.33;;;17.00;90.70;;;;;;5104159;28;20054;-60
2022/05/31 08:10:29;;;;;;;4.43;1.30;;;17.90;82.10;;;;;;5112047;28;20028;-55
2022/05/31 08:12:55;;;;;;;2.72;1.10;;;18.70;84.80;;;;;;5111940;28;20384;-50
2022/05/31 08:15:21;;;;;;;1.73;1.00;;;19.80;75.40;;;;;;5112263;28;20035;-51
2022/05/31 08:17:46;;;;;;;2.15;1.10;;;20.20;76.40;;;;;;5111767;28;20039;-60
2022/05/31 08:20:16;;;;;;;9.02;3.92;;;20.70;72.90;;;;;;5107568;28;20105;-50
2022/05/31 08:22:43;;;;;;;2.20;1.00;;;21.20;72.50;;;;;;5102085;28;20023;-60
2022/05/31 08:25:09;;;;;;;3.20;1.27;;;21.90;65.70;;;;;;5111960;28;20834;-60
2022/05/31 08:27:34;;;;;;;3.30;1.30;;;22.70;67.50;;;;;;5093820;28;20058;-57
2022/05/31 08:30:03;;;;;;;2.97;1.00;;;23.00;67.40;;;;;;5101206;28;20022;-57
2022/05/31 08:32:29;;;;;;;1.75;0.80;;;23.10;64.20;;;;;;5084189;28;20035;-56
2022/05/31 08:34:55;;;;;;;5.40;1.20;;;22.50;61.60;;;;;;5096586;28;20487;-60
2022/05/31 08:37:21;;;;;;;2.60;0.88;;;22.20;59.70;;;;;;5091477;28;20027;-58
2022/05/31 08:39:47;;;;;;;3.60;0.90;;;21.90;64.90;;;;;;5103940;27;20533;-59
2022/05/31 08:42:20;;;;;;;1.40;0.80;;;21.80;69.60;;;;;;5095446;28;20016;-61
2022/05/31 08:44:48;;;;;;;2.50;1.08;;;22.00;62.90;;;;;;5100791;28;20492;-60
2022/05/31 08:47:38;;;;;;;2.87;1.07;;;22.00;58.70;;;;;;5097519;28;20045;-54
2022/05/31 08:53:31;;;;;;;4.03;1.15;;;20.50;63.00;;;;;;5072552;28;20097;-58
2022/05/31 08:58:55;;;;;;;2.45;0.93;;;19.40;68.50;;;;;;5097668;28;20086;-60
2022/05/31 09:01:24;;;;;;;4.45;1.15;;;19.10;67.40;;;;;;5091313;28;20020;-61
2022/05/31 09:03:59;;;;;;;2.80;0.98;;;18.60;68.90;;;;;;5091101;28;20035;-55
2022/05/31 09:06:36;;;;;;;5.57;1.20;;;18.20;70.20;;;;;;5091161;28;20035;-60
2022/05/31 09:09:12;;;;;;;4.05;1.30;;;18.20;71.90;;;;;;5091225;28;20024;-45
2022/05/31 09:11:54;;;;;;;3.35;1.00;;;18.20;74.70;;;;;;5091486;28;20031;-48
2022/05/31 09:14:28;;;;;;;5.85;1.48;;;17.90;74.70;;;;;;5090884;28;20152;-41
2022/05/31 09:17:07;;;;;;;3.90;1.27;;;17.40;74.10;;;;;;5091132;28;20095;-45
2022/05/31 09:19:43;;;;;;;5.57;1.30;;;16.90;74.30;;;;;;5090844;28;20008;-44
2022/05/31 09:22:09;;;;;;;4.45;1.40;;;16.40;75.50;;;;;;5097320;28;20072;-53
2022/05/31 09:24:43;;;;;;;3.65;1.27;;;15.90;78.80;;;;;;5111353;28;20023;-41
2022/05/31 09:27:11;;;;;;;3.50;1.40;;;15.60;83.60;;;;;;5111204;28;20472;-41
2022/05/31 09:30:01;;;;;;;5.57;2.30;;;15.30;83.70;;;;;;5111290;28;20360;-41
2022/05/31 09:33:04;;;;;;;3.33;1.80;;;15.10;86.80;;;;;;5097777;28;20061;-44
2022/05/31 09:36:02;;;;;;;9.10;2.22;;;15.00;88.60;;;;;;5111101;28;20031;-59
2022/05/31 09:38:48;;;;;;;5.78;2.20;;;15.20;89.30;;;;;;5046155;28;20528;-54
2022/05/31 09:41:36;;;;;;;5.15;2.38;;;15.50;92.20;;;;;;5111154;28;20024;-57
2022/05/31 09:44:35;;;;;;;4.68;1.98;;;15.90;90.70;;;;;;5110938;28;20020;-54
2022/05/31 09:47:27;;;;;;;4.80;2.08;;;16.30;86.90;;;;;;5111078;28;20036;-55
2022/05/31 09:49:54;;;;;;;4.47;2.03;;;16.70;84.80;;;;;;5088351;28;20031;-50
2022/05/31 09:52:43;;;;;;;3.40;1.48;;;16.80;81.40;;;;;;5110895;28;20129;-47
2022/05/31 09:58:32;;;;;;;2.10;1.67;;;16.80;80.20;;;;;;5111057;28;20055;-59
2022/05/31 10:01:20;;;;;;;3.70;1.80;;;16.70;79.00;;;;;;5112451;28;20031;-55
2022/05/31 10:03:52;;;;;;;6.20;2.27;;;16.60;80.40;;;;;;5116150;27;20103;-60
2022/05/31 10:06:19;;;;;;;3.67;1.80;;;16.90;89.70;;;;;;5113824;27;20051;-56
2022/05/31 10:08:47;;;;;;;6.72;1.67;;;17.40;82.50;;;;;;5114792;28;20024;-60
2022/05/31 10:11:43;;;;;;;4.93;1.90;;;17.50;73.10;;;;;;5114628;28;20015;-57
2022/05/31 10:14:31;;;;;;;3.05;1.40;;;17.40;73.80;;;;;;5114858;28;20529;-54
2022/05/31 10:17:32;;;;;;;2.42;1.60;;;17.00;77.00;;;;;;5114846;28;20108;-58
2022/05/31 10:20:12;;;;;;;3.97;1.40;;;16.70;79.10;;;;;;5112619;28;20024;-59
2022/05/31 10:22:52;;;;;;;3.83;1.52;;;16.60;80.10;;;;;;5104825;28;20024;-58
2022/05/31 10:25:20;;;;;;;3.00;1.38;;;16.60;81.50;;;;;;5114390;28;20102;-55
2022/05/31 10:27:46;;;;;;;2.28;1.40;;;16.10;74.50;;;;;;5114581;28;20490;-61
2022/05/31 10:30:20;;;;;;;4.75;1.50;;;16.10;80.40;;;;;;5114210;28;20035;-56
2022/05/31 10:32:52;;;;;;;5.97;2.05;;;16.30;84.30;;;;;;5114380;28;20027;-57
2022/05/31 10:35:24;;;;;;;3.75;1.67;;;17.20;89.10;;;;;;5109850;28;20477;-60
2022/05/31 10:38:09;;;;;;;5.25;1.83;;;18.50;84.60;;;;;;5093184;28;20031;-60
2022/05/31 10:40:49;;;;;;;3.50;1.45;;;20.10;83.60;;;;;;5094433;28;20017;-58
2022/05/31 10:43:28;;;;;;;9.48;1.60;;;21.40;73.40;;;;;;5093379;28;20077;-55
2022/05/31 10:45:55;;;;;;;6.93;1.92;;;22.20;65.20;;;;;;5093377;28;20113;-58
2022/05/31 10:48:21;;;;;;;4.03;1.60;;;22.90;62.80;;;;;;5095784;28;20066;-60
2022/05/31 10:50:50;;;;;;;3.72;1.83;;;23.00;54.30;;;;;;5093273;28;20019;-57
2022/05/31 10:53:29;;;;;;;2.47;1.35;;;23.00;57.30;;;;;;5107249;28;20043;-58
2022/05/31 10:56:15;;;;;;;2.58;1.27;;;23.20;58.10;;;;;;5113283;28;20047;-56
2022/05/31 10:58:41;;;;;;;2.70;1.17;;;23.10;52.40;;;;;;5101629;28;20069;-62
2022/05/31 11:01:39;;;;;;;2.75;1.25;;;23.20;55.60;;;;;;5113669;28;20059;-50
2022/05/31 11:04:36;;;;;;;3.92;1.55;;;23.70;58.10;;;;;;5113974;28;20030;-55
2022/05/31 11:07:27;;;;;;;2.42;1.40;;;24.00;54.70;;;;;;5100331;28;20024;-58
2022/05/31 11:13:27;;;;;;;3.50;1.55;;;23.60;57.30;;;;;;5095764;27;20130;-58
2022/05/31 11:15:52;;;;;;;2.30;1.48;;;23.50;56.50;;;;;;5098349;28;20501;-56
2022/05/31 11:18:37;;;;;;;4.50;1.58;;;23.90;57.40;;;;;;5095774;28;20099;-55
2022/05/31 11:21:15;;;;;;;3.35;1.30;;;23.30;54.40;;;;;;5092797;28;20384;-51
2022/05/31 11:24:14;;;;;;;2.75;1.33;;;23.50;52.80;;;;;;5093227;28;20020;-56
2022/05/31 11:27:10;;;;;;;3.03;1.58;;;23.40;54.40;;;;;;5111223;28;20110;-55
2022/05/31 11:30:01;;;;;;;3.25;1.13;;;23.00;49.80;;;;;;5099182;28;20034;-56
2022/05/31 11:32:35;;;;;;;3.30;1.30;;;21.80;49.60;;;;;;5111503;28;20094;-53
2022/05/31 11:35:07;;;;;;;4.10;1.35;;;21.00;55.70;;;;;;5112109;28;20399;-59
2022/05/31 11:38:01;;;;;;;3.88;1.20;;;20.90;53.30;;;;;;5112105;28;20102;-56
2022/05/31 11:41:13;;;;;;;2.47;1.00;;;21.00;60.70;;;;;;5117243;27;20038;-50
2022/05/31 11:44:14;;;;;;;3.70;1.30;;;20.40;55.40;;;;;;5082066;28;20437;-53
2022/05/31 11:46:50;;;;;;;3.78;1.30;;;19.60;59.10;;;;;;5108326;28;20440;-58
2022/05/31 11:49:37;;;;;;;2.92;1.25;;;18.80;62.30;;;;;;5106804;28;20097;-48
2022/05/31 11:52:30;;;;;;;3.58;1.30;;;18.50;62.90;;;;;;5096560;28;20554;-56
2022/05/31 11:55:34;;;;;;;6.00;1.58;;;18.30;63.10;;;;;;5092829;28;20058;-57
2022/05/31 11:58:27;;;;;;;5.80;1.75;;;17.90;63.40;;;;;;5044640;28;20531;-52
2022/05/31 12:01:15;;;;;;;3.30;1.30;;;17.50;66.90;;;;;;5092294;28;20024;-57
2022/05/31 12:03:46;;;;;;;3.28;1.48;;;17.20;68.40;;;;;;5092025;28;20020;-57
2022/05/31 12:06:40;;;;;;;4.50;1.52;;;16.70;69.80;;;;;;5091590;28;20035;-58
2022/05/31 12:09:14;;;;;;;5.78;1.75;;;16.60;69.10;;;;;;5094927;28;20077;-57
2022/05/31 12:11:59;;;;;;;5.65;1.45;;;16.40;72.20;;;;;;5095215;28;20024;-58
2022/05/31 12:14:27;;;;;;;2.00;1.33;;;16.30;69.00;;;;;;5094173;28;20066;-57
2022/05/31 12:16:54;;;;;;;4.50;1.33;;;16.60;70.50;;;;;;5093302;28;20012;-56
2022/05/31 12:19:41;;;;;;;6.65;1.48;;;16.90;67.00;;;;;;5091407;28;20178;-60
2022/05/31 12:22:25;;;;;;;3.55;1.20;;;17.40;67.80;;;;;;5094668;28;20012;-53
2022/05/31 12:25:30;;;;;;;4.97;1.10;;;18.00;63.50;;;;;;5100942;27;20066;-60
2022/05/31 12:28:06;;;;;;;5.38;1.38;;;18.20;61.50;;;;;;5069363;28;20051;-42
2022/05/31 12:30:59;;;;;;;3.58;1.15;;;18.20;67.50;;;;;;5094573;27;20506;-57
2022/05/31 12:33:35;;;;;;;3.30;1.17;;;18.40;66.10;;;;;;5082940;28;20032;-58
2022/05/31 12:36:01;;;;;;;3.50;0.93;;;18.20;62.90;;;;;;5091540;28;20043;-54
2022/05/31 12:38:27;;;;;;;3.83;0.93;;;18.10;66.10;;;;;;5091420;28;20016;-59
2022/05/31 12:40:55;;;;;;;4.82;1.10;;;17.70;63.90;;;;;;5091601;28;20023;-59
2022/05/31 12:43:32;;;;;;;2.70;1.42;;;17.40;67.40;;;;;;5091361;28;20020;-59
2022/05/31 12:45:58;;;;;;;2.85;1.48;;;16.90;75.10;;;;;;5091600;28;20050;-47
2022/05/31 12:48:27;;;;;;;4.70;1.63;;;16.70;80.20;;;;;;5091320;28;20055;-42
2022/05/31 12:50:55;;;;;;;3.72;1.42;;;16.60;78.00;;;;;;5100753;28;20016;-52
2022/05/31 12:53:39;;;;;;;4.75;1.30;;;16.60;81.80;;;;;;5091031;28;20443;-44
2022/05/31 12:56:29;;;;;;;3.70;1.40;;;17.10;83.70;;;;;;5091420;28;20040;-60
2022/05/31 12:58:56;;;;;;;2.47;1.10;;;17.80;87.40;;;;;;5090865;28;20024;-59
2022/05/31 13:01:24;;;;;;;4.53;1.45;;;18.60;74.50;;;;;;5091187;28;20028;-59
2022/05/31 13:03:50;;;;;;;5.10;1.20;;;18.90;76.90;;;;;;5091168;28;20488;-51
2022/05/31 13:06:37;;;;;;;2.45;1.02;;;19.20;69.10;;;;;;5091018;28;20016;-58
2022/05/31 13:09:10;;;;;;;3.45;1.17;;;19.40;67.70;;;;;;5091077;28;20073;-59
2022/05/31 13:20:11;;;;;;;1.98;1.00;;;18.20;63.90;;;;;;5108641;28;20051;-50
2022/05/31 13:22:41;;;;;;;6.10;1.00;;;17.70;66.20;;;;;;5101201;28;20028;-59
2022/05/31 13:25:29;;;;;;;2.58;0.90;;;17.40;66.70;;;;;;5111345;28;20107;-59
2022/05/31 13:27:58;;;;;;;4.40;1.17;;;17.20;71.10;;;;;;5110481;28;20047;-50
2022/05/31 13:30:27;;;;;;;5.90;1.42;;;16.90;66.50;;;;;;5109800;28;20039;-41
2022/05/31 13:32:53;;;;;;;3.83;1.35;;;16.70;70.10;;;;;;5109670;28;20016;-46
2022/05/31 13:35:26;;;;;;;6.55;1.30;;;16.70;74.20;;;;;;5109944;28;20044;-41
2022/05/31 13:37:59;;;;;;;2.13;1.25;;;16.70;67.80;;;;;;5114667;28;20101;-59
2022/05/31 13:40:38;;;;;;;4.30;1.08;;;16.80;71.90;;;;;;5115488;28;20545;-59
2022/05/31 13:43:13;;;;;;;1.98;1.10;;;16.70;69.30;;;;;;5109095;28;20035;-60
2022/05/31 13:45:39;;;;;;;5.20;1.25;;;17.10;70.60;;;;;;5097012;28;20052;-60
2022/05/31 13:48:18;;;;;;;5.78;1.60;;;17.60;71.80;;;;;;5109951;28;20055;-55
2022/05/31 13:51:00;;;;;;;3.03;1.05;;;17.90;67.70;;;;;;5110332;27;20016;-57